createdAt,value
2016-11-06T00:00:02.494Z,7.62
2016-11-06T00:01:02.485Z,7.66
2016-11-06T00:02:02.460Z,7.62
2016-11-06T00:03:02.442Z,7.6
2016-11-06T00:04:02.425Z,7.62
2016-11-06T00:05:02.407Z,7.6
2016-11-06T00:06:02.391Z,7.6
2016-11-06T00:07:02.375Z,7.63
2016-11-06T00:08:02.359Z,7.63
2016-11-06T00:09:02.884Z,7.58
2016-11-06T00:10:02.681Z,7.71
2016-11-06T00:11:02.303Z,7.67
2016-11-06T00:12:02.285Z,7.58
2016-11-06T00:13:02.271Z,7.62
2016-11-06T00:14:02.283Z,7.72
2016-11-06T00:15:02.234Z,7.58
2016-11-06T00:16:02.216Z,7.58
2016-11-06T00:17:02.199Z,7.6
2016-11-06T00:18:02.186Z,7.62
2016-11-06T00:19:02.479Z,7.6
2016-11-06T00:20:02.164Z,7.6
2016-11-06T00:21:02.128Z,7.55
2016-11-06T00:22:02.109Z,7.52
2016-11-06T00:23:02.459Z,7.45
2016-11-06T00:24:02.076Z,7.47
2016-11-06T00:25:02.057Z,7.44
2016-11-06T00:26:02.042Z,7.35
2016-11-06T00:27:02.335Z,7.37
2016-11-06T00:28:02.016Z,7.26
2016-11-06T00:29:01.988Z,7.37
2016-11-06T00:30:01.972Z,7.22
2016-11-06T00:31:01.952Z,7.27
2016-11-06T00:32:01.939Z,7.2
2016-11-06T00:33:01.929Z,7.16
2016-11-06T00:34:01.921Z,7.17
2016-11-06T00:35:01.892Z,7.2
2016-11-06T00:36:01.870Z,7.15
2016-11-06T00:37:02.479Z,7.08
2016-11-06T00:38:01.834Z,7.01
2016-11-06T00:39:01.810Z,7.04
2016-11-06T00:40:01.795Z,7.01
2016-11-06T00:41:01.780Z,7.02
2016-11-06T00:42:02.073Z,6.98
2016-11-06T00:43:01.744Z,6.99
2016-11-06T00:44:01.725Z,6.99
2016-11-06T00:45:02.024Z,6.95
2016-11-06T00:46:01.999Z,7.04
2016-11-06T00:47:01.982Z,6.98
2016-11-06T00:48:01.963Z,7.02
2016-11-06T00:49:01.946Z,6.97
2016-11-06T00:50:01.618Z,6.89
2016-11-06T00:51:01.596Z,6.9
2016-11-06T00:52:01.896Z,6.89
2016-11-06T00:53:01.562Z,6.87
2016-11-06T00:54:01.551Z,6.87
2016-11-06T00:55:01.839Z,6.86
2016-11-06T00:56:01.510Z,6.86
2016-11-06T00:57:01.496Z,6.81
2016-11-06T00:58:01.472Z,6.84
2016-11-06T00:59:01.456Z,6.86
2016-11-06T01:00:01.744Z,6.86
2016-11-06T01:01:01.415Z,6.83
2016-11-06T01:02:01.401Z,6.84
2016-11-06T01:03:01.389Z,6.86
2016-11-06T01:04:01.363Z,6.83
2016-11-06T01:05:01.385Z,6.79
2016-11-06T01:06:01.332Z,6.76
2016-11-06T01:07:01.311Z,6.71
2016-11-06T01:08:01.606Z,6.73
2016-11-06T01:09:01.312Z,6.68
2016-11-06T01:10:01.255Z,6.81
2016-11-06T01:11:01.238Z,6.72
2016-11-06T01:12:01.216Z,6.72
2016-11-06T01:13:01.203Z,6.76
2016-11-06T01:14:01.188Z,6.77
2016-11-06T01:15:01.166Z,6.79
2016-11-06T01:16:01.148Z,6.87
2016-11-06T01:17:01.125Z,6.84
2016-11-06T01:18:01.110Z,6.86
2016-11-06T01:19:01.123Z,6.73
2016-11-06T01:20:01.703Z,6.86
2016-11-06T01:21:01.094Z,6.83
2016-11-06T01:22:01.348Z,6.83
2016-11-06T01:23:01.331Z,6.76
2016-11-06T01:24:01.002Z,6.84
2016-11-06T01:25:01.345Z,6.86
2016-11-06T01:26:00.970Z,6.79
2016-11-06T01:27:00.952Z,6.83
2016-11-06T01:28:01.243Z,6.8
2016-11-06T01:29:01.223Z,6.71
2016-11-06T01:30:00.902Z,6.73
2016-11-06T01:31:00.878Z,6.72
2016-11-06T01:32:00.856Z,6.63
2016-11-06T01:33:00.841Z,6.65
2016-11-06T01:34:01.140Z,6.58
2016-11-06T01:35:00.799Z,6.65
2016-11-06T01:36:00.787Z,6.56
2016-11-06T01:37:00.765Z,6.53
2016-11-06T01:38:00.747Z,6.51
2016-11-06T01:39:00.761Z,6.56
2016-11-06T01:40:00.711Z,6.53
2016-11-06T01:41:01.008Z,6.54
2016-11-06T01:42:00.686Z,6.54
2016-11-06T01:43:00.657Z,6.56
2016-11-06T01:44:00.643Z,6.56
2016-11-06T01:45:00.932Z,6.53
2016-11-06T01:46:00.605Z,6.48
2016-11-06T01:47:00.586Z,6.5
2016-11-06T01:48:00.569Z,6.3
2016-11-06T01:49:00.551Z,6.35
2016-11-06T01:50:00.530Z,6.33
2016-11-06T01:51:00.513Z,6.36
2016-11-06T01:52:00.499Z,6.33
2016-11-06T01:53:00.477Z,6.33
2016-11-06T01:54:00.493Z,6.32
2016-11-06T01:55:00.448Z,6.33
2016-11-06T01:56:00.425Z,6.3
2016-11-06T01:57:00.438Z,6.32
2016-11-06T01:58:00.392Z,6.32
2016-11-06T01:59:00.369Z,6.33
2016-11-06T02:00:00.351Z,6.35
2016-11-06T02:01:00.333Z,6.29
2016-11-06T02:02:00.314Z,6.26
2016-11-06T02:03:00.295Z,6.21
2016-11-06T02:04:00.310Z,6.25
2016-11-06T02:05:00.261Z,6.21
2016-11-06T02:06:00.242Z,6.25
2016-11-06T02:07:00.531Z,6.22
2016-11-06T02:08:00.209Z,6.21
2016-11-06T02:09:00.700Z,6.14
2016-11-06T02:10:00.178Z,6.1
2016-11-06T02:11:00.348Z,6.14
2016-11-06T02:12:00.130Z,6.1
2016-11-06T02:13:00.117Z,6.06
2016-11-06T02:14:00.133Z,6.11
2016-11-06T02:15:00.398Z,6.1
2016-11-06T02:16:00.055Z,6.11
2016-11-06T02:17:00.048Z,6.1
2016-11-06T02:18:00.021Z,6.06
2016-11-06T02:19:00.312Z,6.1
2016-11-06T02:19:59.983Z,6.03
2016-11-06T02:20:59.969Z,5.98
2016-11-06T02:22:00.263Z,5.95
2016-11-06T02:22:59.927Z,6
2016-11-06T02:23:59.910Z,5.91
2016-11-06T02:24:59.892Z,5.91
2016-11-06T02:25:59.875Z,5.96
2016-11-06T02:26:59.854Z,6
2016-11-06T02:27:59.837Z,6.03
2016-11-06T02:28:59.825Z,5.98
2016-11-06T02:29:59.803Z,6.01
2016-11-06T02:30:59.784Z,5.95
2016-11-06T02:32:00.388Z,6
2016-11-06T02:32:59.745Z,5.93
2016-11-06T02:33:59.725Z,5.96
2016-11-06T02:34:59.712Z,6.01
2016-11-06T02:35:59.690Z,5.92
2016-11-06T02:36:59.673Z,5.98
2016-11-06T02:37:59.656Z,5.91
2016-11-06T02:38:59.632Z,5.91
2016-11-06T02:39:59.617Z,6.01
2016-11-06T02:40:59.599Z,5.91
2016-11-06T02:41:59.893Z,5.95
2016-11-06T02:42:59.876Z,5.93
2016-11-06T02:43:59.540Z,5.92
2016-11-06T02:44:59.523Z,5.91
2016-11-06T02:45:59.510Z,5.89
2016-11-06T02:46:59.492Z,5.86
2016-11-06T02:47:59.466Z,5.83
2016-11-06T02:48:59.450Z,5.91
2016-11-06T02:49:59.430Z,5.89
2016-11-06T02:50:59.411Z,5.92
2016-11-06T02:51:59.391Z,5.88
2016-11-06T02:52:59.411Z,5.88
2016-11-06T02:53:59.354Z,5.86
2016-11-06T02:54:59.339Z,5.83
2016-11-06T02:55:59.317Z,5.82
2016-11-06T02:56:59.309Z,5.78
2016-11-06T02:57:59.280Z,5.82
2016-11-06T02:58:59.890Z,5.83
2016-11-06T02:59:59.241Z,5.85
2016-11-06T03:00:59.263Z,5.82
2016-11-06T03:01:59.518Z,5.73
2016-11-06T03:02:59.818Z,5.68
2016-11-06T03:03:59.168Z,5.7
2016-11-06T03:04:59.204Z,5.75
2016-11-06T03:05:59.131Z,5.73
2016-11-06T03:06:59.112Z,5.71
2016-11-06T03:07:59.094Z,5.67
2016-11-06T03:08:59.079Z,5.68
2016-11-06T03:09:59.375Z,5.71
2016-11-06T03:10:59.041Z,5.66
2016-11-06T03:11:59.336Z,5.66
2016-11-06T03:12:59.315Z,5.71
2016-11-06T03:13:58.984Z,5.74
2016-11-06T03:14:59.281Z,5.7
2016-11-06T03:15:58.947Z,5.7
2016-11-06T03:16:58.955Z,5.73
2016-11-06T03:17:58.908Z,5.64
2016-11-06T03:18:58.889Z,5.59
2016-11-06T03:19:58.873Z,5.63
2016-11-06T03:20:58.859Z,5.66
2016-11-06T03:21:59.180Z,5.56
2016-11-06T03:22:58.842Z,5.57
2016-11-06T03:23:59.128Z,5.6
2016-11-06T03:24:58.812Z,5.63
2016-11-06T03:25:58.763Z,5.59
2016-11-06T03:26:58.738Z,5.63
2016-11-06T03:27:58.720Z,5.59
2016-11-06T03:28:58.702Z,5.66
2016-11-06T03:29:58.720Z,5.63
2016-11-06T03:30:58.666Z,5.64
2016-11-06T03:31:58.957Z,5.57
2016-11-06T03:32:58.623Z,5.63
2016-11-06T03:33:58.613Z,5.6
2016-11-06T03:34:58.904Z,5.68
2016-11-06T03:35:58.570Z,5.56
2016-11-06T03:36:58.553Z,5.53
2016-11-06T03:37:58.851Z,5.59
2016-11-06T03:38:58.517Z,5.52
2016-11-06T03:39:58.497Z,5.59
2016-11-06T03:40:58.475Z,5.57
2016-11-06T03:41:58.456Z,5.66
2016-11-06T03:42:58.755Z,5.56
2016-11-06T03:43:58.425Z,5.53
2016-11-06T03:44:58.397Z,5.6
2016-11-06T03:45:58.694Z,5.56
2016-11-06T03:46:58.989Z,5.55
2016-11-06T03:47:58.345Z,5.59
2016-11-06T03:48:58.321Z,5.63
2016-11-06T03:49:58.344Z,5.57
2016-11-06T03:50:58.287Z,5.59
2016-11-06T03:51:58.267Z,5.48
2016-11-06T03:52:58.563Z,5.63
2016-11-06T03:53:58.544Z,5.56
2016-11-06T03:54:58.265Z,5.6
2016-11-06T03:55:58.195Z,5.59
2016-11-06T03:56:58.175Z,5.6
2016-11-06T03:57:58.164Z,5.57
2016-11-06T03:58:58.141Z,5.59
2016-11-06T03:59:58.122Z,5.57
2016-11-06T04:00:58.407Z,5.57
2016-11-06T04:01:58.079Z,5.66
2016-11-06T04:02:58.060Z,5.57
2016-11-06T04:03:58.351Z,5.53
2016-11-06T04:04:58.024Z,5.6
2016-11-06T04:05:58.003Z,5.5
2016-11-06T04:06:57.982Z,5.56
2016-11-06T04:07:57.962Z,5.55
2016-11-06T04:08:58.550Z,5.56
2016-11-06T04:09:57.922Z,5.56
2016-11-06T04:10:57.906Z,5.52
2016-11-06T04:11:57.888Z,5.59
2016-11-06T04:12:58.184Z,5.57
2016-11-06T04:13:57.854Z,5.59
2016-11-06T04:14:57.831Z,5.55
2016-11-06T04:15:57.812Z,5.6
2016-11-06T04:16:57.796Z,5.6
2016-11-06T04:17:57.772Z,5.5
2016-11-06T04:18:57.753Z,5.59
2016-11-06T04:19:58.050Z,5.59
2016-11-06T04:20:57.713Z,5.53
2016-11-06T04:21:57.693Z,5.53
2016-11-06T04:22:57.682Z,5.63
2016-11-06T04:23:57.658Z,5.66
2016-11-06T04:24:57.638Z,5.66
2016-11-06T04:25:57.930Z,5.63
2016-11-06T04:26:57.600Z,5.64
2016-11-06T04:27:57.580Z,5.63
2016-11-06T04:28:57.562Z,5.66
2016-11-06T04:29:57.542Z,5.74
2016-11-06T04:30:57.525Z,5.66
2016-11-06T04:31:57.503Z,5.68
2016-11-06T04:32:57.484Z,5.66
2016-11-06T04:33:57.777Z,5.63
2016-11-06T04:34:57.447Z,5.7
2016-11-06T04:35:57.501Z,5.67
2016-11-06T04:36:57.722Z,5.59
2016-11-06T04:37:57.390Z,5.63
2016-11-06T04:38:57.422Z,5.66
2016-11-06T04:39:57.350Z,5.59
2016-11-06T04:40:57.644Z,5.59
2016-11-06T04:41:57.315Z,5.59
2016-11-06T04:42:57.296Z,5.71
2016-11-06T04:43:57.276Z,5.67
2016-11-06T04:44:57.258Z,5.6
2016-11-06T04:45:57.241Z,5.59
2016-11-06T04:46:57.217Z,5.63
2016-11-06T04:47:57.241Z,5.68
2016-11-06T04:48:57.187Z,5.59
2016-11-06T04:49:57.527Z,5.64
2016-11-06T04:50:57.147Z,5.6
2016-11-06T04:51:57.129Z,5.68
2016-11-06T04:52:57.108Z,5.6
2016-11-06T04:53:57.084Z,5.55
2016-11-06T04:54:57.064Z,5.56
2016-11-06T04:55:57.046Z,5.55
2016-11-06T04:56:57.028Z,5.59
2016-11-06T04:57:57.006Z,5.6
2016-11-06T04:58:56.993Z,5.64
2016-11-06T04:59:56.971Z,5.59
2016-11-06T05:00:57.263Z,5.55
2016-11-06T05:01:56.933Z,5.55
2016-11-06T05:02:56.912Z,5.56
2016-11-06T05:03:57.207Z,5.52
2016-11-06T05:04:56.912Z,5.55
2016-11-06T05:05:56.855Z,5.56
2016-11-06T05:06:56.840Z,5.59
2016-11-06T05:07:56.816Z,5.59
2016-11-06T05:08:56.797Z,5.57
2016-11-06T05:09:57.096Z,5.63
2016-11-06T05:10:57.077Z,5.48
2016-11-06T05:11:56.738Z,5.48
2016-11-06T05:12:56.724Z,5.57
2016-11-06T05:13:56.700Z,5.52
2016-11-06T05:14:56.678Z,5.43
2016-11-06T05:15:56.664Z,5.46
2016-11-06T05:16:56.643Z,5.43
2016-11-06T05:17:56.621Z,5.53
2016-11-06T05:18:56.603Z,5.52
2016-11-06T05:19:56.592Z,5.5
2016-11-06T05:20:56.881Z,5.41
2016-11-06T05:21:56.547Z,5.43
2016-11-06T05:22:56.525Z,5.48
2016-11-06T05:23:56.519Z,5.48
2016-11-06T05:24:56.490Z,5.46
2016-11-06T05:25:56.473Z,5.45
2016-11-06T05:26:56.455Z,5.4
2016-11-06T05:27:56.430Z,5.43
2016-11-06T05:28:56.415Z,5.4
2016-11-06T05:29:56.398Z,5.43
2016-11-06T05:30:56.376Z,5.43
2016-11-06T05:31:56.359Z,5.46
2016-11-06T05:32:56.335Z,5.4
2016-11-06T05:33:56.317Z,5.41
2016-11-06T05:34:56.302Z,5.46
2016-11-06T05:35:56.290Z,5.45
2016-11-06T05:36:56.262Z,5.45
2016-11-06T05:37:56.237Z,5.46
2016-11-06T05:38:56.219Z,5.46
2016-11-06T05:39:56.200Z,5.46
2016-11-06T05:40:56.188Z,5.46
2016-11-06T05:41:56.170Z,5.46
2016-11-06T05:42:56.148Z,5.48
2016-11-06T05:43:56.127Z,5.43
2016-11-06T05:44:56.106Z,5.4
2016-11-06T05:45:56.150Z,5.46
2016-11-06T05:46:56.382Z,5.49
2016-11-06T05:47:56.055Z,5.48
2016-11-06T05:48:56.035Z,5.46
2016-11-06T05:49:56.324Z,5.4
2016-11-06T05:50:55.995Z,5.45
2016-11-06T05:51:56.291Z,5.46
2016-11-06T05:52:55.952Z,5.43
2016-11-06T05:53:55.936Z,5.48
2016-11-06T05:54:56.226Z,5.52
2016-11-06T05:55:55.945Z,5.55
2016-11-06T05:56:55.870Z,5.53
2016-11-06T05:57:55.858Z,5.52
2016-11-06T05:58:55.836Z,5.55
2016-11-06T05:59:55.816Z,5.55
2016-11-06T06:00:56.117Z,5.6
2016-11-06T06:01:55.776Z,5.57
2016-11-06T06:02:55.759Z,5.52
2016-11-06T06:03:55.742Z,5.57
2016-11-06T06:04:55.720Z,5.64
2016-11-06T06:05:55.707Z,5.63
2016-11-06T06:06:55.688Z,5.67
2016-11-06T06:07:55.669Z,5.66
2016-11-06T06:08:55.647Z,5.75
2016-11-06T06:09:55.822Z,5.7
2016-11-06T06:10:55.615Z,5.73
2016-11-06T06:11:55.590Z,5.74
2016-11-06T06:12:55.882Z,5.78
2016-11-06T06:13:55.546Z,5.83
2016-11-06T06:14:55.838Z,5.78
2016-11-06T06:15:55.872Z,5.78
2016-11-06T06:16:55.496Z,5.82
2016-11-06T06:17:55.681Z,5.91
2016-11-06T06:18:55.451Z,5.75
2016-11-06T06:19:55.440Z,5.85
2016-11-06T06:20:55.419Z,5.85
2016-11-06T06:21:55.395Z,5.89
2016-11-06T06:22:55.375Z,5.91
2016-11-06T06:23:55.358Z,5.96
2016-11-06T06:24:55.340Z,6
2016-11-06T06:25:55.319Z,5.96
2016-11-06T06:26:55.617Z,5.91
2016-11-06T06:27:55.330Z,5.96
2016-11-06T06:28:55.577Z,5.91
2016-11-06T06:29:55.560Z,5.88
2016-11-06T06:30:55.227Z,5.92
2016-11-06T06:31:55.211Z,6.04
2016-11-06T06:32:55.192Z,5.91
2016-11-06T06:33:55.167Z,5.91
2016-11-06T06:34:55.150Z,5.91
2016-11-06T06:35:55.131Z,6
2016-11-06T06:36:55.114Z,5.92
2016-11-06T06:37:55.090Z,6
2016-11-06T06:38:55.080Z,6.07
2016-11-06T06:39:55.058Z,6.06
2016-11-06T06:40:55.043Z,6.01
2016-11-06T06:41:55.022Z,6.07
2016-11-06T06:42:54.999Z,6.06
2016-11-06T06:43:55.333Z,6.1
2016-11-06T06:44:55.280Z,6.09
2016-11-06T06:45:54.943Z,6.09
2016-11-06T06:46:54.926Z,6.09
2016-11-06T06:47:54.907Z,6.07
2016-11-06T06:48:54.885Z,6.04
2016-11-06T06:49:54.902Z,6.09
2016-11-06T06:50:54.854Z,6.07
2016-11-06T06:51:55.147Z,6.06
2016-11-06T06:52:54.812Z,6.1
2016-11-06T06:53:55.138Z,6.09
2016-11-06T06:54:54.773Z,6.09
2016-11-06T06:55:54.754Z,6.1
2016-11-06T06:56:54.738Z,6.09
2016-11-06T06:57:54.742Z,6.07
2016-11-06T06:58:55.020Z,6.07
2016-11-06T06:59:55.003Z,6.09
2016-11-06T07:00:54.665Z,6.07
2016-11-06T07:01:54.644Z,6.1
2016-11-06T07:02:54.940Z,6.11
2016-11-06T07:03:54.608Z,6.1
2016-11-06T07:04:54.898Z,6.06
2016-11-06T07:05:54.573Z,6.14
2016-11-06T07:06:54.553Z,6.06
2016-11-06T07:07:54.537Z,6.11
2016-11-06T07:08:54.519Z,6.14
2016-11-06T07:09:54.494Z,6.14
2016-11-06T07:10:54.477Z,6.22
2016-11-06T07:11:54.471Z,6.22
2016-11-06T07:12:54.441Z,6.26
2016-11-06T07:13:54.421Z,6.29
2016-11-06T07:14:54.407Z,6.19
2016-11-06T07:15:54.387Z,6.25
2016-11-06T07:16:54.365Z,6.22
2016-11-06T07:17:54.375Z,6.32
2016-11-06T07:18:54.651Z,6.29
2016-11-06T07:19:54.623Z,6.35
2016-11-06T07:20:54.310Z,6.36
2016-11-06T07:21:54.279Z,6.29
2016-11-06T07:22:54.256Z,6.3
2016-11-06T07:23:54.292Z,6.29
2016-11-06T07:24:54.216Z,6.29
2016-11-06T07:25:54.201Z,6.33
2016-11-06T07:26:54.180Z,6.32
2016-11-06T07:27:54.165Z,6.32
2016-11-06T07:28:54.463Z,6.28
2016-11-06T07:29:54.165Z,6.29
2016-11-06T07:30:54.384Z,6.25
2016-11-06T07:31:54.099Z,6.3
2016-11-06T07:32:54.391Z,6.28
2016-11-06T07:33:54.069Z,6.25
2016-11-06T07:34:54.363Z,6.21
2016-11-06T07:35:54.016Z,6.21
2016-11-06T07:36:54.331Z,6.09
2016-11-06T07:37:53.986Z,6.13
2016-11-06T07:38:54.003Z,6.16
2016-11-06T07:39:53.993Z,6.18
2016-11-06T07:40:53.923Z,6.21
2016-11-06T07:41:53.944Z,6.26
2016-11-06T07:42:54.211Z,6.21
2016-11-06T07:43:53.880Z,6.3
2016-11-06T07:44:53.852Z,6.35
2016-11-06T07:45:54.141Z,6.29
2016-11-06T07:46:53.818Z,6.3
2016-11-06T07:47:53.811Z,6.28
2016-11-06T07:48:54.092Z,6.3
2016-11-06T07:49:53.757Z,6.3
2016-11-06T07:50:53.742Z,6.36
2016-11-06T07:51:53.726Z,6.33
2016-11-06T07:52:53.700Z,6.38
2016-11-06T07:53:53.695Z,6.35
2016-11-06T07:54:53.666Z,6.3
2016-11-06T07:55:53.655Z,6.43
2016-11-06T07:56:53.640Z,6.48
2016-11-06T07:57:53.607Z,6.5
2016-11-06T07:58:53.919Z,6.61
2016-11-06T07:59:53.576Z,6.51
2016-11-06T08:00:53.594Z,6.53
2016-11-06T08:01:53.859Z,6.5
2016-11-06T08:02:53.519Z,6.51
2016-11-06T08:03:53.500Z,6.59
2016-11-06T08:04:53.483Z,6.59
2016-11-06T08:05:53.466Z,6.66
2016-11-06T08:06:53.759Z,6.61
2016-11-06T08:07:53.756Z,6.61
2016-11-06T08:08:53.732Z,6.65
2016-11-06T08:09:53.609Z,6.63
2016-11-06T08:10:53.688Z,6.56
2016-11-06T08:11:53.669Z,6.58
2016-11-06T08:12:53.659Z,6.66
2016-11-06T08:13:53.319Z,6.71
2016-11-06T08:14:53.337Z,6.73
2016-11-06T08:15:53.282Z,6.77
2016-11-06T08:16:53.264Z,6.71
2016-11-06T08:17:53.564Z,6.68
2016-11-06T08:18:53.578Z,6.76
2016-11-06T08:19:53.263Z,6.79
2016-11-06T08:20:53.201Z,6.86
2016-11-06T08:21:53.176Z,6.77
2016-11-06T08:22:53.163Z,6.76
2016-11-06T08:23:53.140Z,6.86
2016-11-06T08:24:53.122Z,6.84
2016-11-06T08:25:53.421Z,6.94
2016-11-06T08:26:53.092Z,6.94
2016-11-06T08:27:53.068Z,6.98
2016-11-06T08:28:53.053Z,6.94
2016-11-06T08:29:53.087Z,6.97
2016-11-06T08:30:53.066Z,6.95
2016-11-06T08:31:53.002Z,7.04
2016-11-06T08:32:52.984Z,7.05
2016-11-06T08:33:52.964Z,7.16
2016-11-06T08:34:53.000Z,7.09
2016-11-06T08:35:52.927Z,7.09
2016-11-06T08:36:53.226Z,7.12
2016-11-06T08:37:53.209Z,7.15
2016-11-06T08:38:52.892Z,7.19
2016-11-06T08:39:52.864Z,7.19
2016-11-06T08:40:52.851Z,7.2
2016-11-06T08:41:52.832Z,7.17
2016-11-06T08:42:52.868Z,7.13
2016-11-06T08:43:53.120Z,7.17
2016-11-06T08:44:52.780Z,7.17
2016-11-06T08:45:52.763Z,7.16
2016-11-06T08:46:52.744Z,7.31
2016-11-06T08:47:52.723Z,7.26
2016-11-06T08:48:53.032Z,7.29
2016-11-06T08:49:53.005Z,7.31
2016-11-06T08:50:52.988Z,7.35
2016-11-06T08:51:52.652Z,7.41
2016-11-06T08:52:52.639Z,7.41
2016-11-06T08:53:52.621Z,7.45
2016-11-06T08:54:52.643Z,7.5
2016-11-06T08:55:52.604Z,7.55
2016-11-06T08:56:52.892Z,7.58
2016-11-06T08:57:52.560Z,7.71
2016-11-06T08:58:52.542Z,7.74
2016-11-06T08:59:52.524Z,7.74
2016-11-06T09:00:52.505Z,7.79
2016-11-06T09:01:52.545Z,7.78
2016-11-06T09:02:53.098Z,7.74
2016-11-06T09:03:52.455Z,7.81
2016-11-06T09:04:53.069Z,7.79
2016-11-06T09:05:52.427Z,7.89
2016-11-06T09:06:52.408Z,7.85
2016-11-06T09:07:52.700Z,7.85
2016-11-06T09:08:52.373Z,7.84
2016-11-06T09:09:52.673Z,7.85
2016-11-06T09:10:52.337Z,7.94
2016-11-06T09:11:52.322Z,8.02
2016-11-06T09:12:52.647Z,8.02
2016-11-06T09:13:52.310Z,8.14
2016-11-06T09:14:52.283Z,8.14
2016-11-06T09:15:52.617Z,8.14
2016-11-06T09:16:52.249Z,8.17
2016-11-06T09:17:52.225Z,8.2
2016-11-06T09:18:52.523Z,8.25
2016-11-06T09:19:52.201Z,8.15
2016-11-06T09:20:52.184Z,8.14
2016-11-06T09:21:52.160Z,8.08
2016-11-06T09:22:52.157Z,7.94
2016-11-06T09:23:52.131Z,8
2016-11-06T09:24:52.130Z,7.9
2016-11-06T09:25:52.152Z,7.85
2016-11-06T09:26:52.089Z,7.81
2016-11-06T09:27:52.067Z,7.87
2016-11-06T09:28:52.056Z,7.82
2016-11-06T09:29:52.412Z,7.72
2016-11-06T09:30:52.385Z,7.71
2016-11-06T09:31:52.003Z,7.71
2016-11-06T09:32:51.990Z,7.82
2016-11-06T09:33:51.984Z,7.75
2016-11-06T09:34:51.968Z,7.74
2016-11-06T09:35:51.939Z,7.74
2016-11-06T09:36:51.921Z,7.72
2016-11-06T09:37:51.909Z,7.81
2016-11-06T09:38:51.898Z,7.78
2016-11-06T09:39:52.188Z,7.72
2016-11-06T09:40:51.857Z,7.71
2016-11-06T09:41:52.538Z,7.85
2016-11-06T09:42:51.829Z,7.87
2016-11-06T09:43:52.124Z,7.89
2016-11-06T09:44:52.133Z,7.87
2016-11-06T09:45:51.784Z,7.84
2016-11-06T09:46:51.754Z,7.84
2016-11-06T09:47:51.744Z,7.82
2016-11-06T09:48:52.045Z,7.84
2016-11-06T09:49:52.022Z,7.9
2016-11-06T09:50:51.693Z,7.9
2016-11-06T09:51:51.989Z,7.78
2016-11-06T09:52:51.669Z,7.81
2016-11-06T09:53:51.957Z,7.85
2016-11-06T09:54:51.627Z,7.92
2016-11-06T09:55:51.611Z,7.94
2016-11-06T09:56:51.908Z,7.99
2016-11-06T09:57:51.579Z,8.02
2016-11-06T09:58:51.561Z,8.02
2016-11-06T09:59:51.857Z,8.08
2016-11-06T10:00:51.525Z,8.1
2016-11-06T10:01:51.516Z,8.11
2016-11-06T10:02:51.516Z,8.2
2016-11-06T10:03:51.498Z,8.14
2016-11-06T10:04:51.855Z,8.18
2016-11-06T10:05:51.459Z,8.21
2016-11-06T10:06:51.460Z,8.21
2016-11-06T10:07:51.439Z,8.35
2016-11-06T10:08:51.404Z,8.36
2016-11-06T10:09:51.949Z,8.35
2016-11-06T10:10:51.372Z,8.22
2016-11-06T10:11:51.369Z,8.21
2016-11-06T10:12:51.336Z,8.18
2016-11-06T10:13:51.323Z,8.22
2016-11-06T10:14:51.686Z,8.11
2016-11-06T10:15:51.647Z,8.1
2016-11-06T10:16:51.338Z,8.03
2016-11-06T10:17:51.251Z,8.03
2016-11-06T10:18:51.549Z,8.02
2016-11-06T10:19:51.219Z,8.03
2016-11-06T10:20:51.216Z,8.1
2016-11-06T10:21:51.198Z,8.07
2016-11-06T10:22:51.179Z,8.07
2016-11-06T10:23:51.166Z,8.02
2016-11-06T10:24:51.144Z,8.04
2016-11-06T10:25:51.120Z,8.02
2016-11-06T10:26:51.137Z,8.02
2016-11-06T10:27:51.098Z,8.11
2016-11-06T10:28:51.078Z,8.14
2016-11-06T10:29:51.087Z,8.18
2016-11-06T10:30:51.394Z,8.14
2016-11-06T10:31:51.345Z,8.14
2016-11-06T10:32:51.021Z,8.18
2016-11-06T10:33:51.006Z,8.15
2016-11-06T10:34:50.983Z,8.14
2016-11-06T10:35:51.628Z,8.2
2016-11-06T10:36:50.951Z,8.14
2016-11-06T10:37:50.928Z,8.18
2016-11-06T10:38:50.915Z,8.11
2016-11-06T10:39:50.916Z,8.12
2016-11-06T10:40:50.913Z,8.17
2016-11-06T10:41:50.861Z,8.15
2016-11-06T10:42:50.870Z,8.11
2016-11-06T10:43:51.179Z,8.25
2016-11-06T10:44:51.148Z,8.11
2016-11-06T10:45:50.844Z,8.2
2016-11-06T10:46:51.102Z,8.15
2016-11-06T10:47:51.128Z,8.12
2016-11-06T10:48:51.079Z,8.12
2016-11-06T10:49:50.757Z,8.14
2016-11-06T10:50:51.034Z,8.21
2016-11-06T10:51:50.705Z,8.18
2016-11-06T10:52:50.702Z,8.15
2016-11-06T10:53:51.021Z,8.2
2016-11-06T10:54:50.709Z,8.12
2016-11-06T10:55:50.639Z,8.28
2016-11-06T10:56:50.661Z,8.18
2016-11-06T10:57:50.958Z,8.18
2016-11-06T10:58:50.587Z,8.21
2016-11-06T10:59:50.620Z,8.17
2016-11-06T11:00:50.566Z,8.18
2016-11-06T11:01:50.553Z,8.17
2016-11-06T11:02:50.534Z,8.22
2016-11-06T11:03:50.845Z,8.2
2016-11-06T11:04:50.826Z,8.22
2016-11-06T11:05:50.802Z,8.2
2016-11-06T11:06:50.488Z,8.18
2016-11-06T11:07:50.760Z,8.17
2016-11-06T11:08:50.763Z,8.25
2016-11-06T11:09:50.428Z,8.22
2016-11-06T11:10:51.040Z,8.2
2016-11-06T11:11:50.454Z,8.25
2016-11-06T11:12:50.383Z,8.22
2016-11-06T11:13:50.388Z,8.29
2016-11-06T11:14:50.699Z,8.28
2016-11-06T11:15:50.982Z,8.32
2016-11-06T11:16:50.333Z,8.33
2016-11-06T11:17:50.648Z,8.35
2016-11-06T11:18:50.905Z,8.3
2016-11-06T11:19:50.568Z,8.36
2016-11-06T11:20:50.273Z,8.39
2016-11-06T11:21:50.868Z,8.32
2016-11-06T11:22:50.580Z,8.29
2016-11-06T11:23:50.823Z,8.32
2016-11-06T11:24:50.481Z,8.32
2016-11-06T11:25:50.487Z,8.3
2016-11-06T11:26:50.163Z,8.32
2016-11-06T11:27:50.451Z,8.32
2016-11-06T11:28:50.536Z,8.36
2016-11-06T11:29:50.400Z,8.35
2016-11-06T11:30:50.084Z,8.35
2016-11-06T11:31:50.682Z,8.35
2016-11-06T11:32:50.386Z,8.32
2016-11-06T11:33:50.373Z,8.4
2016-11-06T11:34:50.673Z,8.37
2016-11-06T11:35:50.325Z,8.42
2016-11-06T11:36:50.328Z,8.37
2016-11-06T11:37:49.985Z,8.4
2016-11-06T11:38:49.938Z,8.32
2016-11-06T11:39:49.934Z,8.33
2016-11-06T11:40:49.933Z,8.28
2016-11-06T11:41:49.925Z,8.21
2016-11-06T11:42:49.928Z,8.3
2016-11-06T11:43:49.852Z,8.35
2016-11-06T11:44:49.840Z,8.26
2016-11-06T11:45:49.816Z,8.33
2016-11-06T11:46:49.804Z,8.21
2016-11-06T11:47:49.820Z,8.26
2016-11-06T11:48:50.121Z,8.35
2016-11-06T11:49:49.754Z,8.36
2016-11-06T11:50:49.733Z,8.33
2016-11-06T11:51:49.721Z,8.25
2016-11-06T11:52:50.022Z,8.21
2016-11-06T11:53:49.693Z,8.22
2016-11-06T11:54:49.986Z,8.15
2016-11-06T11:55:49.970Z,8.18
2016-11-06T11:56:49.638Z,8.18
2016-11-06T11:57:49.628Z,8.22
2016-11-06T11:58:49.610Z,8.36
2016-11-06T11:59:49.594Z,8.3
2016-11-06T12:00:49.630Z,8.33
2016-11-06T12:01:49.564Z,8.29
2016-11-06T12:02:49.541Z,8.29
2016-11-06T12:03:49.527Z,8.37
2016-11-06T12:04:49.553Z,8.21
2016-11-06T12:05:49.493Z,8.4
2016-11-06T12:06:49.473Z,8.28
2016-11-06T12:07:49.466Z,8.3
2016-11-06T12:08:49.440Z,8.32
2016-11-06T12:09:49.940Z,8.18
2016-11-06T12:10:49.415Z,8.18
2016-11-06T12:11:49.400Z,8.21
2016-11-06T12:12:49.372Z,8.15
2016-11-06T12:13:49.372Z,8.14
2016-11-06T12:14:49.656Z,8.18
2016-11-06T12:15:49.365Z,8.2
2016-11-06T12:16:49.314Z,8.2
2016-11-06T12:17:49.645Z,8.2
2016-11-06T12:18:49.274Z,8.17
2016-11-06T12:19:49.260Z,8.15
2016-11-06T12:20:49.561Z,8.21
2016-11-06T12:21:49.227Z,8.17
2016-11-06T12:22:49.524Z,8.11
2016-11-06T12:23:49.191Z,8.2
2016-11-06T12:24:49.172Z,8.18
2016-11-06T12:25:49.160Z,8.18
2016-11-06T12:26:49.193Z,8.11
2016-11-06T12:27:49.127Z,8.11
2016-11-06T12:28:49.142Z,8.08
2016-11-06T12:29:49.406Z,8.08
2016-11-06T12:30:49.080Z,8.07
2016-11-06T12:31:49.111Z,8.02
2016-11-06T12:32:49.049Z,7.99
2016-11-06T12:33:49.030Z,8
2016-11-06T12:34:49.008Z,8.07
2016-11-06T12:35:49.306Z,8.03
2016-11-06T12:36:48.979Z,8.02
2016-11-06T12:37:48.958Z,8.04
2016-11-06T12:38:49.297Z,7.96
2016-11-06T12:39:48.932Z,8.03
2016-11-06T12:40:49.227Z,7.94
2016-11-06T12:41:48.890Z,8.03
2016-11-06T12:42:48.877Z,7.97
2016-11-06T12:43:48.882Z,7.89
2016-11-06T12:44:48.842Z,7.92
2016-11-06T12:45:48.826Z,7.82
2016-11-06T12:46:48.811Z,7.87
2016-11-06T12:47:48.801Z,7.79
2016-11-06T12:48:48.777Z,7.89
2016-11-06T12:49:48.763Z,7.78
2016-11-06T12:50:48.752Z,7.79
2016-11-06T12:51:49.042Z,7.78
2016-11-06T12:52:49.022Z,7.75
2016-11-06T12:53:48.689Z,7.78
2016-11-06T12:54:48.671Z,7.69
2016-11-06T12:55:48.659Z,7.67
2016-11-06T12:56:48.638Z,7.66
2016-11-06T12:57:48.633Z,7.6
2016-11-06T12:58:48.605Z,7.67
2016-11-06T12:59:48.588Z,7.67
2016-11-06T13:00:48.883Z,7.55
2016-11-06T13:01:48.869Z,7.59
2016-11-06T13:02:48.871Z,7.63
2016-11-06T13:03:48.519Z,7.6
2016-11-06T13:04:48.840Z,7.58
2016-11-06T13:05:48.488Z,7.47
2016-11-06T13:06:48.784Z,7.56
2016-11-06T13:07:48.765Z,7.45
2016-11-06T13:08:48.432Z,7.44
2016-11-06T13:09:48.415Z,7.44
2016-11-06T13:10:48.401Z,7.44
2016-11-06T13:11:48.430Z,7.52
2016-11-06T13:12:48.361Z,7.44
2016-11-06T13:13:48.351Z,7.47
2016-11-06T13:14:48.332Z,7.45
2016-11-06T13:15:48.317Z,7.47
2016-11-06T13:16:48.607Z,7.42
2016-11-06T13:17:48.278Z,7.47
2016-11-06T13:18:48.574Z,7.44
2016-11-06T13:19:48.277Z,7.44
2016-11-06T13:20:48.223Z,7.5
2016-11-06T13:21:48.208Z,7.42